createdAt,value
2022-11-27T00:01:25.515Z,5.31
2022-11-27T00:03:53.172Z,5.33
2022-11-27T00:06:22.774Z,5.30
2022-11-27T00:08:49.600Z,5.28
2022-11-27T00:11:21.603Z,5.29
2022-11-27T00:13:49.694Z,5.34
2022-11-27T00:16:16.922Z,5.36
2022-11-27T00:18:43.949Z,5.29
2022-11-27T00:21:13.813Z,5.35
2022-11-27T00:23:43.375Z,5.35
2022-11-27T00:26:14.943Z,5.42
2022-11-27T00:28:41.497Z,5.44
2022-11-27T00:31:17.639Z,5.58
2022-11-27T00:33:45.178Z,5.42
2022-11-27T00:36:12.656Z,5.38
2022-11-27T00:38:39.498Z,5.34
2022-11-27T00:41:15.894Z,5.36
2022-11-27T00:43:44.917Z,5.42
2022-11-27T00:46:16.256Z,5.44
2022-11-27T00:48:43.492Z,5.38
2022-11-27T00:51:12.680Z,5.32
2022-11-27T00:53:39.429Z,5.24
2022-11-27T00:56:06.014Z,5.24
2022-11-27T00:58:32.436Z,5.20
2022-11-27T01:01:01.508Z,5.21
2022-11-27T01:03:29.995Z,5.23
2022-11-27T01:05:56.711Z,5.22
2022-11-27T01:08:25.323Z,5.19
2022-11-27T01:10:55.143Z,5.12
2022-11-27T01:13:27.331Z,5.19
2022-11-27T01:16:08.151Z,5.25
2022-11-27T01:18:39.267Z,5.13
2022-11-27T01:21:06.306Z,5.22
2022-11-27T01:23:32.841Z,5.20
2022-11-27T01:26:07.012Z,5.16
2022-11-27T01:28:34.672Z,5.12
2022-11-27T01:31:13.495Z,5.13
2022-11-27T01:33:39.990Z,5.08
2022-11-27T01:36:08.515Z,5.11
2022-11-27T01:38:35.066Z,5.06
2022-11-27T01:41:07.828Z,4.99
2022-11-27T01:43:52.869Z,4.99
2022-11-27T01:46:37.099Z,4.95
2022-11-27T01:49:09.333Z,4.93
2022-11-27T01:51:41.120Z,4.96
2022-11-27T01:54:09.900Z,4.92
2022-11-27T01:56:36.976Z,4.91
2022-11-27T01:59:04.052Z,4.86
2022-11-27T02:01:30.691Z,4.80
2022-11-27T02:03:59.498Z,4.73
2022-11-27T02:06:26.240Z,4.71
2022-11-27T02:08:53.336Z,4.66
2022-11-27T02:11:33.641Z,4.63
2022-11-27T02:14:24.165Z,4.56
2022-11-27T02:17:10.735Z,4.54
2022-11-27T02:20:07.375Z,4.56
2022-11-27T02:22:51.949Z,4.47
2022-11-27T02:25:52.837Z,4.41
2022-11-27T02:28:37.403Z,4.36
2022-11-27T02:31:13.004Z,4.32
2022-11-27T02:33:45.158Z,4.28
2022-11-27T02:36:18.865Z,4.25
2022-11-27T02:38:53.108Z,4.36
2022-11-27T02:41:24.755Z,4.38
2022-11-27T02:43:52.945Z,4.34
2022-11-27T02:46:20.689Z,4.26
2022-11-27T02:48:54.733Z,4.16
2022-11-27T02:51:58.970Z,4.02
2022-11-27T02:54:29.058Z,3.97
2022-11-27T02:56:58.223Z,3.92
2022-11-27T02:59:29.419Z,3.90
2022-11-27T03:02:00.651Z,3.91
2022-11-27T03:04:34.388Z,3.90
2022-11-27T03:07:06.932Z,3.92
2022-11-27T03:09:38.747Z,3.92
2022-11-27T03:12:06.999Z,3.91
2022-11-27T03:14:36.029Z,3.88
2022-11-27T03:17:52.464Z,3.90
2022-11-27T03:20:30.426Z,3.89
2022-11-27T03:22:57.227Z,3.88
2022-11-27T03:25:24.508Z,3.86
2022-11-27T03:28:02.481Z,3.83
2022-11-27T03:30:28.920Z,3.79
2022-11-27T03:32:55.897Z,3.71
2022-11-27T03:35:26.294Z,3.73
2022-11-27T03:37:52.996Z,3.65
2022-11-27T03:40:20.325Z,3.60
2022-11-27T03:43:03.731Z,3.60
2022-11-27T03:45:48.419Z,3.60
2022-11-27T03:48:17.488Z,3.50
2022-11-27T03:50:58.916Z,3.52
2022-11-27T03:53:56.211Z,3.45
2022-11-27T03:56:43.894Z,3.39
2022-11-27T03:59:17.097Z,3.37
2022-11-27T04:01:43.575Z,3.31
2022-11-27T04:04:10.140Z,3.31
2022-11-27T04:06:36.606Z,3.27
2022-11-27T04:09:03.984Z,3.27
2022-11-27T04:11:30.454Z,3.24
2022-11-27T04:13:56.839Z,3.15
2022-11-27T04:16:23.262Z,3.13
2022-11-27T04:18:49.729Z,3.08
2022-11-27T04:21:17.021Z,3.09
2022-11-27T04:23:43.995Z,3.07
2022-11-27T04:26:10.862Z,3.04
2022-11-27T04:28:37.296Z,3.04
2022-11-27T04:31:03.967Z,3.04
2022-11-27T04:33:30.494Z,3.02
2022-11-27T04:35:56.852Z,3.00
2022-11-27T04:38:23.283Z,2.97
2022-11-27T04:40:51.789Z,2.97
2022-11-27T04:43:18.168Z,2.93
2022-11-27T04:45:44.688Z,2.91
2022-11-27T04:48:11.142Z,2.92
2022-11-27T04:50:37.567Z,2.87
2022-11-27T04:53:04.104Z,2.85
2022-11-27T04:55:30.493Z,2.83
2022-11-27T04:57:56.872Z,2.80
2022-11-27T05:00:23.329Z,2.76
2022-11-27T05:02:49.768Z,2.67
2022-11-27T05:05:17.202Z,2.63
2022-11-27T05:07:43.686Z,2.54
2022-11-27T05:10:10.516Z,2.55
2022-11-27T05:12:36.897Z,2.48
2022-11-27T05:15:04.807Z,2.42
2022-11-27T05:17:31.708Z,2.43
2022-11-27T05:19:58.067Z,2.30
2022-11-27T05:22:24.425Z,2.27
2022-11-27T05:24:50.775Z,2.28
2022-11-27T05:27:17.151Z,2.32
2022-11-27T05:29:43.783Z,2.27
2022-11-27T05:32:10.153Z,2.27
2022-11-27T05:34:36.526Z,2.27
2022-11-27T05:37:02.991Z,2.22
2022-11-27T05:39:29.332Z,2.23
2022-11-27T05:41:55.712Z,2.24
2022-11-27T05:44:22.060Z,2.22
2022-11-27T05:46:48.475Z,2.16
2022-11-27T05:49:16.474Z,2.13
2022-11-27T05:51:50.424Z,2.12
2022-11-27T05:54:17.367Z,2.09
2022-11-27T05:56:43.720Z,2.11
2022-11-27T05:59:10.795Z,2.09
2022-11-27T06:01:37.209Z,2.08
2022-11-27T06:04:03.673Z,1.97
2022-11-27T06:06:30.699Z,1.90
2022-11-27T06:08:57.055Z,1.87
2022-11-27T06:11:23.866Z,1.86
2022-11-27T06:13:50.959Z,1.87
2022-11-27T06:16:19.972Z,1.76
2022-11-27T06:18:50.036Z,1.68
2022-11-27T06:21:16.990Z,1.74
2022-11-27T06:23:44.435Z,1.71
2022-11-27T06:26:11.423Z,1.63
2022-11-27T06:28:37.823Z,1.77
2022-11-27T06:31:17.468Z,1.55
2022-11-27T06:33:44.407Z,1.49
2022-11-27T06:36:10.752Z,1.50
2022-11-27T06:38:38.346Z,1.48
2022-11-27T06:41:06.749Z,1.55
2022-11-27T06:43:34.480Z,2.12
2022-11-27T06:46:02.176Z,2.05
2022-11-27T06:48:29.278Z,1.95
2022-11-27T06:50:59.287Z,1.71
2022-11-27T06:53:25.644Z,1.52
2022-11-27T06:55:52.001Z,1.52
2022-11-27T06:58:18.349Z,1.34
2022-11-27T07:00:44.757Z,1.31
2022-11-27T07:03:11.177Z,1.36
2022-11-27T07:05:37.652Z,1.30
2022-11-27T07:08:04.804Z,1.25
2022-11-27T07:10:34.982Z,1.28
2022-11-27T07:13:01.823Z,1.22
2022-11-27T07:15:28.540Z,1.21
2022-11-27T07:17:54.885Z,1.14
2022-11-27T07:20:21.271Z,1.21
2022-11-27T07:22:47.633Z,1.17
2022-11-27T07:25:14.004Z,1.25
2022-11-27T07:27:40.461Z,1.28
2022-11-27T07:30:07.667Z,1.39
2022-11-27T07:32:34.091Z,1.50
2022-11-27T07:35:00.479Z,1.57
2022-11-27T07:37:29.944Z,1.55
2022-11-27T07:40:02.682Z,1.53
2022-11-27T07:42:38.011Z,1.55
2022-11-27T07:45:05.711Z,1.51
2022-11-27T07:47:32.107Z,1.52
2022-11-27T07:50:00.248Z,1.64
2022-11-27T07:52:27.067Z,1.54
2022-11-27T07:54:53.613Z,1.69
2022-11-27T07:57:20.144Z,1.72
2022-11-27T07:59:47.680Z,1.68
2022-11-27T08:02:14.563Z,1.60
2022-11-27T08:04:41.220Z,1.70
2022-11-27T08:07:07.800Z,1.62
2022-11-27T08:09:34.220Z,1.61
2022-11-27T08:12:00.655Z,1.62
2022-11-27T08:14:27.236Z,1.67
2022-11-27T08:16:53.697Z,1.69
2022-11-27T08:19:20.103Z,1.70
2022-11-27T08:21:46.751Z,1.76
2022-11-27T08:24:13.168Z,1.92
2022-11-27T08:26:39.953Z,1.85
2022-11-27T08:29:06.671Z,1.84
2022-11-27T08:31:33.956Z,1.88
2022-11-27T08:34:00.490Z,1.77
2022-11-27T08:36:27.237Z,1.84
2022-11-27T08:38:55.144Z,1.85
2022-11-27T08:41:21.752Z,1.97
2022-11-27T08:43:48.159Z,1.95
2022-11-27T08:46:14.570Z,2.04
2022-11-27T08:48:41.893Z,2.12
2022-11-27T08:51:14.710Z,2.09
2022-11-27T08:53:44.054Z,2.12
2022-11-27T08:56:15.489Z,2.21
2022-11-27T08:58:41.939Z,2.34
2022-11-27T09:01:14.180Z,2.40
2022-11-27T09:03:40.642Z,2.45
2022-11-27T09:06:12.965Z,2.41
2022-11-27T09:08:40.880Z,2.56
2022-11-27T09:11:07.901Z,2.53
2022-11-27T09:13:36.943Z,2.55
2022-11-27T09:16:04.532Z,2.58
2022-11-27T09:18:31.281Z,2.60
2022-11-27T09:21:07.206Z,2.56
2022-11-27T09:23:34.040Z,2.56
2022-11-27T09:26:02.591Z,2.59
2022-11-27T09:28:31.654Z,2.65
2022-11-27T09:31:00.580Z,2.68
2022-11-27T09:33:28.849Z,2.64
2022-11-27T09:35:55.600Z,2.67
2022-11-27T09:38:23.589Z,2.72
2022-11-27T09:41:03.140Z,2.84
2022-11-27T09:43:34.172Z,2.88
2022-11-27T09:46:09.010Z,2.96
2022-11-27T09:48:39.871Z,3.00
2022-11-27T09:51:13.935Z,2.97
2022-11-27T09:53:49.642Z,3.04
2022-11-27T09:56:17.917Z,3.10
2022-11-27T09:58:55.994Z,3.18
2022-11-27T10:01:41.917Z,3.20
2022-11-27T10:04:14.013Z,3.40
2022-11-27T10:06:55.142Z,3.40
2022-11-27T10:09:50.324Z,3.46
2022-11-27T10:12:25.680Z,3.59
2022-11-27T10:15:01.053Z,3.67
2022-11-27T10:17:31.570Z,3.79
2022-11-27T10:20:13.553Z,3.90
2022-11-27T10:22:44.816Z,3.91
2022-11-27T10:25:21.741Z,3.92
2022-11-27T10:28:10.158Z,3.91
2022-11-27T10:30:58.930Z,4.01
2022-11-27T10:33:31.785Z,3.98
2022-11-27T10:35:59.764Z,4.02
2022-11-27T10:38:28.533Z,4.09
2022-11-27T10:41:49.736Z,4.24
2022-11-27T10:44:23.654Z,4.40
2022-11-27T10:46:54.415Z,4.47
2022-11-27T10:49:20.904Z,4.63
2022-11-27T10:51:47.281Z,4.56
2022-11-27T10:54:23.455Z,4.60
2022-11-27T10:57:00.604Z,4.70
2022-11-27T10:59:34.638Z,4.66
2022-11-27T11:02:03.258Z,4.78
2022-11-27T11:04:39.239Z,4.79
2022-11-27T11:07:23.510Z,4.78
2022-11-27T11:09:50.061Z,4.80
2022-11-27T11:12:21.026Z,4.81
2022-11-27T11:15:11.362Z,4.84
2022-11-27T11:17:38.288Z,4.89
2022-11-27T11:20:24.409Z,4.92
2022-11-27T11:22:51.464Z,5.12
2022-11-27T11:25:21.074Z,5.15
2022-11-27T11:27:50.136Z,5.16
2022-11-27T11:30:26.377Z,5.18
2022-11-27T11:33:01.590Z,5.31
2022-11-27T11:35:37.026Z,5.26
2022-11-27T11:38:06.067Z,5.27
2022-11-27T11:40:37.390Z,5.26
2022-11-27T11:43:25.155Z,5.34
2022-11-27T11:45:51.526Z,5.48
2022-11-27T11:48:25.113Z,5.56
2022-11-27T11:50:55.508Z,5.58
2022-11-27T11:53:22.291Z,5.59
2022-11-27T11:56:16.584Z,5.64
2022-11-27T11:58:57.891Z,5.63
2022-11-27T12:01:54.134Z,5.65
2022-11-27T12:04:23.369Z,5.65
2022-11-27T12:07:01.893Z,5.67
2022-11-27T12:09:49.423Z,5.71
2022-11-27T12:12:21.390Z,5.69
2022-11-27T12:15:04.007Z,5.71
2022-11-27T12:17:35.871Z,5.68
2022-11-27T12:20:05.235Z,5.68
2022-11-27T12:22:46.837Z,5.72
2022-11-27T12:25:30.279Z,5.72
2022-11-27T12:28:06.102Z,5.81
2022-11-27T12:30:39.814Z,5.89
2022-11-27T12:33:26.881Z,5.95
2022-11-27T12:36:41.446Z,5.92
2022-11-27T12:39:16.141Z,5.84
2022-11-27T12:42:01.050Z,5.82
2022-11-27T12:45:03.827Z,5.89
2022-11-27T12:47:46.751Z,5.90
2022-11-27T12:50:43.657Z,5.87
2022-11-27T12:53:20.171Z,5.88
2022-11-27T12:56:16.762Z,5.95
2022-11-27T12:58:47.666Z,5.86
2022-11-27T13:01:25.053Z,5.85
2022-11-27T13:04:29.907Z,5.82
2022-11-27T13:07:28.930Z,5.87
2022-11-27T13:09:58.099Z,5.86
2022-11-27T13:12:30.614Z,5.86
2022-11-27T13:15:08.566Z,5.86
2022-11-27T13:17:42.470Z,5.81
2022-11-27T13:20:20.041Z,5.83
2022-11-27T13:22:48.186Z,5.84
2022-11-27T13:25:15.117Z,6.01
2022-11-27T13:27:46.564Z,5.92
2022-11-27T13:30:22.621Z,5.91
2022-11-27T13:32:53.892Z,6.07
2022-11-27T13:35:36.604Z,6.04
2022-11-27T13:38:19.088Z,6.08
2022-11-27T13:40:48.694Z,6.04
2022-11-27T13:43:41.197Z,6.00
2022-11-27T13:46:16.084Z,6.01
2022-11-27T13:48:49.038Z,6.08
2022-11-27T13:51:25.425Z,6.06
2022-11-27T13:53:51.839Z,6.09
2022-11-27T13:56:30.129Z,6.11
2022-11-27T13:58:56.659Z,6.09
2022-11-27T14:01:25.037Z,6.08
2022-11-27T14:03:52.177Z,6.08
2022-11-27T14:06:23.739Z,6.09
2022-11-27T14:08:54.710Z,6.13
2022-11-27T14:11:42.812Z,6.02
2022-11-27T14:14:21.170Z,5.97
2022-11-27T14:17:00.123Z,5.88
2022-11-27T14:19:34.013Z,5.78
2022-11-27T14:22:02.105Z,5.81
2022-11-27T14:24:43.807Z,5.78
2022-11-27T14:27:20.352Z,5.71
2022-11-27T14:29:47.566Z,5.68
2022-11-27T14:32:15.861Z,5.59
2022-11-27T14:34:43.121Z,5.55
2022-11-27T14:37:27.560Z,5.52
2022-11-27T14:39:54.736Z,5.48
2022-11-27T14:42:35.199Z,5.40
2022-11-27T14:45:12.367Z,5.34
2022-11-27T14:47:45.258Z,5.31
2022-11-27T14:50:14.265Z,5.34
2022-11-27T14:52:43.788Z,5.33
2022-11-27T14:55:16.164Z,5.28
2022-11-27T14:57:44.139Z,5.27
2022-11-27T15:00:20.559Z,5.22
2022-11-27T15:02:49.818Z,5.23
2022-11-27T15:05:28.669Z,5.15
2022-11-27T15:07:57.970Z,5.06
2022-11-27T15:10:32.444Z,4.97
2022-11-27T15:13:01.115Z,4.90
2022-11-27T15:15:30.219Z,4.92
2022-11-27T15:18:01.041Z,4.82
2022-11-27T15:20:44.732Z,4.77
2022-11-27T15:23:17.950Z,4.74
2022-11-27T15:25:48.113Z,4.70
2022-11-27T15:28:23.503Z,4.63
2022-11-27T15:30:50.573Z,4.53
2022-11-27T15:33:28.443Z,4.49
2022-11-27T15:36:16.235Z,4.46
2022-11-27T15:38:43.421Z,4.42
2022-11-27T15:41:25.962Z,4.40
2022-11-27T15:43:52.747Z,4.35
2022-11-27T15:46:25.032Z,4.37
2022-11-27T15:48:51.995Z,4.34
2022-11-27T15:51:18.474Z,4.27
2022-11-27T15:53:45.101Z,4.25
2022-11-27T15:56:11.453Z,4.20
2022-11-27T15:58:37.856Z,4.19
2022-11-27T16:01:05.845Z,4.12
2022-11-27T16:03:32.220Z,4.08
2022-11-27T16:06:05.923Z,4.04
2022-11-27T16:08:32.379Z,4.00
2022-11-27T16:11:03.605Z,3.99
2022-11-27T16:13:30.059Z,3.93
2022-11-27T16:16:04.590Z,3.95
2022-11-27T16:18:32.194Z,3.92
2022-11-27T16:21:03.807Z,3.91
2022-11-27T16:23:30.340Z,3.84
2022-11-27T16:25:56.800Z,3.79
2022-11-27T16:28:23.146Z,3.75
2022-11-27T16:30:51.980Z,3.73
2022-11-27T16:33:19.836Z,3.73
2022-11-27T16:35:46.187Z,3.68
2022-11-27T16:38:12.861Z,3.64
2022-11-27T16:40:39.468Z,3.59
2022-11-27T16:43:05.821Z,3.57
2022-11-27T16:45:35.841Z,3.53
2022-11-27T16:48:02.806Z,3.46
2022-11-27T16:50:30.657Z,3.46
2022-11-27T16:52:57.612Z,3.48
2022-11-27T16:55:25.142Z,3.47
2022-11-27T16:57:51.844Z,3.37
2022-11-27T17:00:18.844Z,3.38
2022-11-27T17:02:45.250Z,3.33
2022-11-27T17:05:11.643Z,3.32
2022-11-27T17:07:38.073Z,3.27
2022-11-27T17:10:04.950Z,3.33
2022-11-27T17:12:32.629Z,3.24
2022-11-27T17:14:58.974Z,3.26
2022-11-27T17:17:25.452Z,3.19
2022-11-27T17:19:55.035Z,3.19
2022-11-27T17:22:21.378Z,3.18
2022-11-27T17:24:47.749Z,3.21
2022-11-27T17:27:14.697Z,3.13
2022-11-27T17:29:41.208Z,3.16
2022-11-27T17:32:09.861Z,3.08
2022-11-27T17:34:36.345Z,3.06
2022-11-27T17:37:02.784Z,3.04
2022-11-27T17:39:29.161Z,2.99
2022-11-27T17:41:55.531Z,3.00
2022-11-27T17:44:21.988Z,2.95
2022-11-27T17:46:50.522Z,2.95
2022-11-27T17:49:17.090Z,2.89
2022-11-27T17:51:43.770Z,2.88
2022-11-27T17:54:11.254Z,2.87
2022-11-27T17:56:37.628Z,2.87
2022-11-27T17:59:04.137Z,2.91
2022-11-27T18:01:30.871Z,2.81
2022-11-27T18:04:00.422Z,2.83
2022-11-27T18:06:27.193Z,2.82
2022-11-27T18:08:55.702Z,2.80
2022-11-27T18:11:24.508Z,2.77
2022-11-27T18:13:51.453Z,2.78
2022-11-27T18:16:25.148Z,2.81
2022-11-27T18:18:51.642Z,2.84
2022-11-27T18:21:19.783Z,2.85
2022-11-27T18:24:21.298Z,2.79
2022-11-27T18:27:06.556Z,2.73
2022-11-27T18:29:23.192Z,2.78
2022-11-27T18:31:51.026Z,2.77
2022-11-27T18:34:17.587Z,2.71
2022-11-27T18:36:45.054Z,2.67
2022-11-27T18:39:11.935Z,2.68
2022-11-27T18:41:38.375Z,2.65
2022-11-27T18:44:04.997Z,2.64
2022-11-27T18:46:31.483Z,2.65
2022-11-27T18:48:58.683Z,2.62
2022-11-27T18:51:26.424Z,2.60
2022-11-27T18:53:53.389Z,2.62
2022-11-27T18:56:22.707Z,2.63
2022-11-27T18:58:50.169Z,2.66
2022-11-27T19:01:25.690Z,2.65
2022-11-27T19:03:52.542Z,2.65
2022-11-27T19:06:21.421Z,2.70
2022-11-27T19:08:48.055Z,3.00
2022-11-27T19:11:17.309Z,3.04
2022-11-27T19:13:45.336Z,2.95
2022-11-27T19:16:17.715Z,2.89
2022-11-27T19:18:44.466Z,2.84
2022-11-27T19:21:12.911Z,2.79
2022-11-27T19:23:39.537Z,2.73
2022-11-27T19:26:23.699Z,2.71
2022-11-27T19:28:51.889Z,2.69
2022-11-27T19:31:18.608Z,2.79
2022-11-27T19:33:45.358Z,2.70
2022-11-27T19:36:13.666Z,2.71
2022-11-27T19:38:42.291Z,2.66
2022-11-27T19:41:17.598Z,2.62
2022-11-27T19:43:45.314Z,2.60
2022-11-27T19:46:16.657Z,2.62
2022-11-27T19:48:43.965Z,2.57
2022-11-27T19:51:10.743Z,2.58
2022-11-27T19:53:37.806Z,2.56
2022-11-27T19:56:04.886Z,2.60
2022-11-27T19:58:32.303Z,2.56
2022-11-27T20:01:09.903Z,2.52
2022-11-27T20:03:36.825Z,2.52
2022-11-27T20:06:09.982Z,2.56
2022-11-27T20:08:37.562Z,2.60
2022-11-27T20:11:07.385Z,2.63
2022-11-27T20:13:33.891Z,2.59
2022-11-27T20:16:00.395Z,2.57
2022-11-27T20:18:27.963Z,2.60
2022-11-27T20:21:05.276Z,2.61
2022-11-27T20:23:31.769Z,2.61
2022-11-27T20:25:58.663Z,2.60
2022-11-27T20:28:25.046Z,2.63
2022-11-27T20:30:59.309Z,2.68
2022-11-27T20:33:27.453Z,2.64
2022-11-27T20:35:55.081Z,2.66
2022-11-27T20:38:22.873Z,2.64
2022-11-27T20:40:50.567Z,2.67
2022-11-27T20:43:16.957Z,2.70
2022-11-27T20:45:43.506Z,2.69
2022-11-27T20:48:10.627Z,2.71
2022-11-27T20:50:38.981Z,2.73
2022-11-27T20:53:06.275Z,2.73
2022-11-27T20:55:33.877Z,2.73
2022-11-27T20:58:00.267Z,2.80
2022-11-27T21:00:26.954Z,2.80
2022-11-27T21:02:53.367Z,2.87
2022-11-27T21:05:20.090Z,2.83
2022-11-27T21:07:46.649Z,2.76
2022-11-27T21:10:16.207Z,2.78
2022-11-27T21:12:43.216Z,2.81
2022-11-27T21:15:10.298Z,2.78
2022-11-27T21:17:36.874Z,2.77
2022-11-27T21:20:04.310Z,2.77
2022-11-27T21:22:31.477Z,2.77
2022-11-27T21:24:57.926Z,2.72
2022-11-27T21:27:24.385Z,2.74
2022-11-27T21:29:50.906Z,2.78
2022-11-27T21:32:22.695Z,2.77
2022-11-27T21:34:49.183Z,2.73
2022-11-27T21:37:15.592Z,2.73
2022-11-27T21:39:44.091Z,2.76
2022-11-27T21:42:10.496Z,2.70
2022-11-27T21:44:41.258Z,2.70
2022-11-27T21:47:11.927Z,2.70
2022-11-27T21:49:41.567Z,2.72
2022-11-27T21:52:08.192Z,2.72
2022-11-27T21:54:34.851Z,2.73
2022-11-27T21:57:01.307Z,2.78
2022-11-27T21:59:27.838Z,2.80
2022-11-27T22:01:56.999Z,2.79
2022-11-27T22:04:24.809Z,2.74
2022-11-27T22:06:51.352Z,2.74
2022-11-27T22:09:18.327Z,2.79
2022-11-27T22:11:46.425Z,2.72
2022-11-27T22:14:14.831Z,2.75
2022-11-27T22:16:45.272Z,2.77
2022-11-27T22:19:12.748Z,2.79
2022-11-27T22:21:39.254Z,2.71
2022-11-27T22:24:06.063Z,2.74
2022-11-27T22:26:32.462Z,2.74
2022-11-27T22:28:59.209Z,2.72
2022-11-27T22:31:29.764Z,2.66
2022-11-27T22:33:57.197Z,2.70
2022-11-27T22:36:32.460Z,2.68
2022-11-27T22:39:00.964Z,2.71
2022-11-27T22:41:29.546Z,2.74
2022-11-27T22:43:56.297Z,2.70
2022-11-27T22:46:25.710Z,2.64
2022-11-27T22:48:54.705Z,2.69
2022-11-27T22:51:22.042Z,2.65
2022-11-27T22:53:48.545Z,2.67
2022-11-27T22:56:15.335Z,2.71
2022-11-27T22:58:42.419Z,2.72
2022-11-27T23:01:13.962Z,2.70
2022-11-27T23:03:40.450Z,2.66
2022-11-27T23:06:12.734Z,2.66
2022-11-27T23:08:40.913Z,2.66
2022-11-27T23:11:09.086Z,2.70
2022-11-27T23:13:35.795Z,2.73
2022-11-27T23:16:03.845Z,2.72
2022-11-27T23:18:30.342Z,2.69
2022-11-27T23:20:56.699Z,2.80
2022-11-27T23:23:24.029Z,2.73
2022-11-27T23:25:50.589Z,2.67
2022-11-27T23:28:17.006Z,2.69
2022-11-27T23:30:43.358Z,2.66
2022-11-27T23:33:09.756Z,2.66
2022-11-27T23:35:36.128Z,2.62
2022-11-27T23:38:03.419Z,2.67
2022-11-27T23:40:29.824Z,2.65
2022-11-27T23:42:56.201Z,2.64
2022-11-27T23:45:22.576Z,2.69
2022-11-27T23:47:50.365Z,2.65
2022-11-27T23:50:16.874Z,2.63
2022-11-27T23:52:43.315Z,2.63
2022-11-27T23:55:09.757Z,2.61
2022-11-27T23:57:36.134Z,2.63
